Time;durP1;ratioP1;P1;durP2;ratioP2;P2;SDS_P1;SDS_P2;PMS_P1;PMS_P2;Temp;Humidity;BMP_temperature;BMP_pressure;BME280_temperature;BME280_humidity;BME280_pressure;Samples;Min_cycle;Max_cycle;Signal;HPM_P1;HPM_P2
2022/09/17 00:00:12;;;;;;;0.30;0.30;;;;;;;22.96;82.83;98433.47;5090896;28;20252;-68
2022/09/17 00:02:39;;;;;;;;;;;;;;;22.98;82.99;98441.97;5090153;28;20692;-68
2022/09/17 00:05:06;;;;;;;0.30;0.30;;;;;;;22.99;82.56;98448.84;5088665;28;20631;-68
2022/09/17 00:07:33;;;;;;;0.30;0.30;;;;;;;22.95;82.71;98430.97;5092829;28;20717;-68
2022/09/17 00:10:00;;;;;;;0.30;0.30;;;;;;;22.98;82.30;98441.97;5092460;28;20204;-68
2022/09/17 00:12:27;;;;;;;0.20;0.20;;;;;;;23.01;82.48;98436.44;5090677;28;20233;-68
2022/09/17 00:14:55;;;;;;;0.30;0.30;;;;;;;23.02;82.64;98429.44;5090775;28;20556;-68
2022/09/17 00:17:23;;;;;;;0.40;0.40;;;;;;;23.04;82.27;98429.28;5089782;28;20210;-68
2022/09/17 00:19:49;;;;;;;0.23;0.23;;;;;;;22.87;82.16;98416.06;5090931;28;20195;-68
2022/09/17 00:22:16;;;;;;;0.30;0.30;;;;;;;22.95;82.58;98436.22;5090816;28;20191;-68
2022/09/17 00:24:43;;;;;;;0.27;0.27;;;;;;;22.96;82.32;98438.69;5090168;28;20211;-68
2022/09/17 00:27:10;;;;;;;0.20;0.20;;;;;;;22.93;82.64;98446.81;5090580;28;20226;-68
2022/09/17 00:29:37;;;;;;;0.20;0.20;;;;;;;22.94;82.37;98440.59;5090374;28;20203;-68
2022/09/17 00:32:03;;;;;;;0.40;0.40;;;;;;;22.86;83.18;98432.69;5090387;28;20199;-68
2022/09/17 00:34:32;;;;;;;0.30;0.30;;;;;;;22.81;83.37;98429.69;5090292;28;20332;-68
2022/09/17 00:36:58;;;;;;;0.20;0.20;;;;;;;22.81;83.21;98428.88;5090447;28;20195;-68
2022/09/17 00:39:25;;;;;;;0.33;0.33;;;;;;;22.80;83.55;98433.28;5090072;28;20206;-68
2022/09/17 00:41:52;;;;;;;0.30;0.30;;;;;;;22.79;82.97;98431.63;5090648;28;20559;-68
2022/09/17 00:44:42;;;;;;;0.30;0.30;;;;;;;22.69;83.24;98436.09;5090412;28;20199;-68
2022/09/17 00:47:14;;;;;;;0.37;0.37;;;;;;;22.65;83.80;98442.53;5088626;28;20633;-68
2022/09/17 00:49:43;;;;;;;0.30;0.30;;;;;;;22.63;83.93;98457.53;5090232;28;20191;-68
2022/09/17 00:52:14;;;;;;;0.30;0.30;;;;;;;22.59;84.32;98440.50;5090182;28;20631;-68
2022/09/17 00:54:44;;;;;;;0.30;0.30;;;;;;;22.52;84.84;98440.25;5090274;28;20203;-68
2022/09/17 00:57:12;;;;;;;0.30;0.30;;;;;;;22.49;84.71;98434.50;5090163;28;20575;-68
2022/09/17 00:59:39;;;;;;;0.33;0.33;;;;;;;22.36;85.25;98429.59;5088977;28;20199;-68
2022/09/17 01:02:06;;;;;;;0.33;0.33;;;;;;;22.24;85.87;98424.69;5088870;28;20199;-68
2022/09/17 01:04:32;;;;;;;0.30;0.30;;;;;;;22.27;85.79;98429.63;5089665;28;20268;-68
2022/09/17 01:07:09;;;;;;;0.30;0.30;;;;;;;22.24;85.79;98440.38;5090014;28;20336;-68
2022/09/17 01:09:43;;;;;;;0.30;0.30;;;;;;;22.20;85.61;98433.78;5089727;28;20198;-68
2022/09/17 01:12:23;;;;;;;0.37;0.37;;;;;;;22.09;86.89;98433.97;5089851;28;20639;-68
2022/09/17 01:15:10;;;;;;;0.40;0.40;;;;;;;21.97;87.04;98422.88;5091499;28;20207;-68
2022/09/17 01:17:43;;;;;;;0.30;0.30;;;;;;;21.97;87.24;98430.72;5089549;28;20248;-68
2022/09/17 01:20:58;;;;;;;0.30;0.30;;;;;;;21.93;87.46;98434.56;5089707;28;21551;-68
2022/09/17 01:24:11;;;;;;;0.30;0.30;;;;;;;21.91;87.61;98445.13;5053890;28;20629;-68
2022/09/17 01:27:03;;;;;;;0.30;0.30;;;;;;;21.87;87.86;98445.53;5041434;28;20268;-68
2022/09/17 01:29:52;;;;;;;0.40;0.40;;;;;;;21.90;87.36;98445.28;5075639;28;20229;-68
2022/09/17 01:32:26;;;;;;;0.30;0.30;;;;;;;21.89;86.85;98441.84;5089729;28;20206;-68
2022/09/17 01:35:01;;;;;;;0.40;0.40;;;;;;;21.88;87.11;98450.59;5089885;28;20648;-68
2022/09/17 01:37:32;;;;;;;0.37;0.37;;;;;;;21.88;87.21;98449.78;5094044;28;20603;-68
2022/09/17 01:40:07;;;;;;;0.40;0.40;;;;;;;21.85;87.14;98450.06;5093989;28;20199;-68
2022/09/17 01:42:43;;;;;;;0.30;0.30;;;;;;;21.82;87.17;98445.94;5093948;28;20723;-69
2022/09/17 01:45:15;;;;;;;0.30;0.30;;;;;;;21.77;87.56;98448.16;5093492;28;20191;-68
2022/09/17 01:47:47;;;;;;;0.30;0.30;;;;;;;21.76;87.52;98443.06;5094165;28;20282;-68
2022/09/17 01:50:18;;;;;;;0.30;0.30;;;;;;;21.69;87.26;98421.94;5092972;28;20207;-68
2022/09/17 01:52:51;;;;;;;0.47;0.47;;;;;;;21.76;87.08;98436.06;5093963;28;20201;-68
2022/09/17 01:55:21;;;;;;;0.30;0.30;;;;;;;21.74;87.14;98432.78;5093203;28;20707;-68
2022/09/17 01:57:54;;;;;;;0.30;0.30;;;;;;;21.71;87.33;98438.25;5092129;28;20234;-68
2022/09/17 02:00:22;;;;;;;0.30;0.30;;;;;;;21.63;86.60;98409.44;5092115;28;20205;-68
2022/09/17 02:02:56;;;;;;;0.30;0.30;;;;;;;21.68;86.69;98416.88;5093868;28;20269;-68
2022/09/17 02:05:28;;;;;;;0.33;0.33;;;;;;;21.67;86.52;98420.44;5093415;28;20728;-68
2022/09/17 02:07:59;;;;;;;0.40;0.40;;;;;;;21.64;86.75;98418.94;5093392;28;20222;-68
2022/09/17 02:10:30;;;;;;;0.30;0.30;;;;;;;21.61;87.44;98407.94;5093094;28;20210;-68
2022/09/17 02:13:01;;;;;;;0.40;0.40;;;;;;;21.58;87.55;98405.63;5091351;28;20231;-68
2022/09/17 02:15:32;;;;;;;0.30;0.30;;;;;;;21.56;87.89;98407.53;5092715;28;21197;-68
2022/09/17 02:18:10;;;;;;;0.30;0.30;;;;;;;21.52;87.99;98404.38;5093399;28;20617;-68
2022/09/17 02:20:42;;;;;;;0.30;0.30;;;;;;;21.50;87.82;98402.88;5092977;28;20244;-68
2022/09/17 02:23:15;;;;;;;0.20;0.20;;;;;;;21.35;87.69;98384.22;5093159;28;20640;-68
2022/09/17 02:25:49;;;;;;;0.40;0.40;;;;;;;21.35;87.58;98389.44;5093295;28;20256;-68
2022/09/17 02:28:22;;;;;;;0.40;0.40;;;;;;;21.36;87.87;98396.28;5092519;28;20235;-68
2022/09/17 02:30:49;;;;;;;0.40;0.40;;;;;;;21.35;87.66;98410.31;5093133;28;20199;-68
2022/09/17 02:33:20;;;;;;;0.30;0.30;;;;;;;21.30;88.26;98402.06;5092619;28;20198;-68
2022/09/17 02:35:47;;;;;;;0.40;0.40;;;;;;;21.28;88.39;98394.38;5093187;28;20640;-68
2022/09/17 02:38:21;;;;;;;0.23;0.23;;;;;;;21.27;88.41;98386.69;5092878;28;20195;-68
2022/09/17 02:40:54;;;;;;;0.30;0.30;;;;;;;21.23;88.52;98391.34;5092773;28;20661;-68
2022/09/17 02:43:31;;;;;;;0.40;0.40;;;;;;;21.22;88.73;98386.28;5092563;28;20255;-68
2022/09/17 02:46:17;;;;;;;0.43;0.43;;;;;;;21.18;88.73;98379.69;5092687;28;20193;-68
2022/09/17 02:49:06;;;;;;;0.30;0.30;;;;;;;21.15;88.89;98377.38;5091652;28;20644;-67
2022/09/17 02:51:43;;;;;;;0.40;0.40;;;;;;;21.11;89.05;98382.03;5091410;28;20701;-67
2022/09/17 02:54:18;;;;;;;0.30;0.30;;;;;;;21.06;89.46;98372.97;5091735;28;20205;-67
2022/09/17 02:56:50;;;;;;;0.83;0.83;;;;;;;20.93;90.25;98366.25;5090980;28;20205;-68
2022/09/17 02:59:23;;;;;;;0.50;0.50;;;;;;;20.99;89.66;98366.63;5091763;28;20260;-67
2022/09/17 03:01:56;;;;;;;0.30;0.30;;;;;;;20.89;89.25;98357.03;5092199;28;20263;-68
2022/09/17 03:04:28;;;;;;;0.30;0.30;;;;;;;20.93;89.23;98358.41;5092342;28;20198;-68
2022/09/17 03:06:57;;;;;;;0.30;0.30;;;;;;;20.86;89.19;98352.09;5092165;28;20216;-68
2022/09/17 03:09:23;;;;;;;0.37;0.37;;;;;;;20.80;89.19;98344.84;5092201;28;20215;-68
2022/09/17 03:11:50;;;;;;;0.30;0.30;;;;;;;20.78;89.84;98338.91;5092080;28;20201;-68
2022/09/17 03:14:19;;;;;;;0.37;0.37;;;;;;;20.58;90.18;98337.25;5092018;28;20582;-68
2022/09/17 03:16:46;;;;;;;0.30;0.30;;;;;;;20.67;89.63;98351.25;5091747;28;20211;-68
2022/09/17 03:19:13;;;;;;;0.40;0.40;;;;;;;20.63;89.19;98345.50;5091571;28;20196;-68
2022/09/17 03:21:41;;;;;;;0.40;0.40;;;;;;;20.51;88.44;98335.31;5092093;28;20196;-68
2022/09/17 03:24:09;;;;;;;0.40;0.40;;;;;;;20.42;89.21;98336.94;5090409;28;20662;-69
2022/09/17 03:26:36;;;;;;;0.30;0.30;;;;;;;20.39;89.69;98348.44;5091987;28;20208;-68
2022/09/17 03:29:03;;;;;;;0.50;0.50;;;;;;;20.40;89.48;98354.47;5091398;28;20201;-68
2022/09/17 03:31:30;;;;;;;0.30;0.30;;;;;;;20.33;89.39;98343.78;5091686;28;20214;-68
2022/09/17 03:33:57;;;;;;;0.30;0.30;;;;;;;20.38;88.98;98327.78;5091484;28;20241;-68
2022/09/17 03:36:24;;;;;;;0.40;0.40;;;;;;;20.39;89.13;98332.81;5090648;28;20201;-68
2022/09/17 03:38:55;;;;;;;0.30;0.30;;;;;;;20.37;89.39;98334.75;5091316;28;20201;-68
2022/09/17 03:41:22;;;;;;;0.40;0.40;;;;;;;20.39;89.21;98318.97;5090558;28;20684;-68
2022/09/17 03:43:49;;;;;;;0.33;0.33;;;;;;;20.23;89.51;98300.41;5091679;28;20205;-68
2022/09/17 03:46:17;;;;;;;0.40;0.40;;;;;;;20.37;89.67;98328.72;5090861;28;20200;-68
2022/09/17 03:48:43;;;;;;;0.30;0.30;;;;;;;20.33;89.48;98322.13;5091908;28;20235;-67
2022/09/17 03:51:12;;;;;;;0.30;0.30;;;;;;;20.30;89.47;98311.97;5090912;28;20560;-67
2022/09/17 03:53:39;;;;;;;0.40;0.40;;;;;;;20.17;89.05;98290.53;5090265;28;20208;-67
2022/09/17 03:56:08;;;;;;;0.40;0.40;;;;;;;20.09;89.34;98299.03;5088232;28;20306;-68
2022/09/17 03:58:35;;;;;;;0.30;0.30;;;;;;;20.08;89.56;98306.97;5090194;28;20206;-67
2022/09/17 04:01:03;;;;;;;0.30;0.30;;;;;;;20.07;89.76;98305.31;5091007;28;20198;-67
2022/09/17 04:03:30;;;;;;;0.30;0.30;;;;;;;20.04;90.11;98305.56;5090970;28;20199;-67
2022/09/17 04:05:57;;;;;;;0.30;0.30;;;;;;;19.96;90.40;98308.03;5091317;28;20200;-68
2022/09/17 04:08:24;;;;;;;0.50;0.50;;;;;;;19.98;90.75;98295.69;5090202;28;20219;-67
2022/09/17 04:10:51;;;;;;;0.27;0.27;;;;;;;19.97;91.15;98310.47;5091105;28;20682;-68
2022/09/17 04:13:20;;;;;;;0.40;0.40;;;;;;;20.00;90.85;98314.63;5090638;28;20222;-68
2022/09/17 04:15:47;;;;;;;0.50;0.50;;;;;;;19.87;91.08;98289.63;5089722;28;20258;-68
2022/09/17 04:18:15;;;;;;;0.40;0.40;;;;;;;20.05;90.71;98309.81;5090404;28;20756;-68
2022/09/17 04:20:42;;;;;;;0.30;0.30;;;;;;;20.04;90.68;98296.00;5089438;28;20292;-68
2022/09/17 04:23:11;;;;;;;0.37;0.37;;;;;;;20.06;90.77;98298.47;5087783;28;20205;-68
2022/09/17 04:25:38;;;;;;;0.83;0.83;;;;;;;20.06;90.73;98286.28;5087607;28;20212;-68
2022/09/17 04:28:04;;;;;;;0.40;0.40;;;;;;;19.97;91.29;98289.66;5087966;28;20637;-67
2022/09/17 04:30:33;;;;;;;0.40;0.40;;;;;;;19.99;91.23;98273.94;5086808;28;20320;-67
2022/09/17 04:33:00;;;;;;;0.40;0.40;;;;;;;19.86;92.01;98268.97;5090262;28;20208;-68
2022/09/17 04:35:27;;;;;;;1.90;1.60;;;;;;;19.85;92.43;98275.94;5090328;28;20197;-68
2022/09/17 04:37:54;;;;;;;0.40;0.40;;;;;;;19.75;93.11;98266.44;5090695;28;20253;-68
2022/09/17 04:40:21;;;;;;;0.40;0.40;;;;;;;19.87;93.73;98284.44;5089851;28;20209;-68
2022/09/17 04:42:48;;;;;;;0.37;0.37;;;;;;;19.95;93.62;98295.97;5090675;28;20211;-67
2022/09/17 04:45:15;;;;;;;0.37;0.37;;;;;;;20.02;93.33;98302.28;5091050;28;20676;-68
2022/09/17 04:47:43;;;;;;;0.30;0.30;;;;;;;20.09;93.37;98308.63;5089673;28;20226;-68
2022/09/17 04:50:10;;;;;;;0.30;0.30;;;;;;;20.12;93.16;98324.78;5089591;28;20697;-67
2022/09/17 04:52:37;;;;;;;0.40;0.40;;;;;;;20.15;92.81;98328.91;5089961;28;20203;-67
2022/09/17 04:55:05;;;;;;;0.30;0.30;;;;;;;20.16;92.24;98320.94;5089977;28;20211;-68
2022/09/17 04:57:31;;;;;;;0.40;0.40;;;;;;;20.18;91.90;98333.84;5090240;28;20679;-68
2022/09/17 04:59:58;;;;;;;0.37;0.37;;;;;;;20.19;92.17;98330.28;5090307;28;20208;-67
2022/09/17 05:02:25;;;;;;;0.30;0.30;;;;;;;20.25;91.83;98332.34;5090039;28;20705;-68
2022/09/17 05:04:55;;;;;;;0.37;0.37;;;;;;;20.29;91.80;98321.56;5090204;28;20201;-67
2022/09/17 05:07:22;;;;;;;0.40;0.40;;;;;;;20.36;91.51;98306.25;5089726;28;20301;-67
2022/09/17 05:09:49;;;;;;;0.40;0.40;;;;;;;20.47;92.23;98313.94;5090016;28;20201;-68
2022/09/17 05:12:16;;;;;;;0.27;0.27;;;;;;;20.63;92.01;98319.44;5089027;28;20221;-68
2022/09/17 05:14:42;;;;;;;0.30;0.30;;;;;;;20.78;91.64;98331.09;5090381;28;20257;-68
2022/09/17 05:17:09;;;;;;;0.30;0.30;;;;;;;20.96;91.26;98333.88;5090149;28;20200;-68
2022/09/17 05:19:36;;;;;;;0.30;0.30;;;;;;;21.16;90.80;98321.69;5090058;28;20619;-68
2022/09/17 05:22:04;;;;;;;0.37;0.37;;;;;;;21.34;90.00;98314.78;5089336;28;20700;-67
2022/09/17 05:24:31;;;;;;;0.30;0.30;;;;;;;21.58;88.27;98312.56;5088702;28;20193;-67
2022/09/17 05:26:58;;;;;;;0.40;0.40;;;;;;;21.70;86.08;98305.38;5089791;28;20195;-68
2022/09/17 05:29:24;;;;;;;0.30;0.30;;;;;;;21.79;86.12;98323.59;5089729;28;20244;-68
2022/09/17 05:31:51;;;;;;;0.30;0.30;;;;;;;21.89;85.67;98321.81;5089692;28;20202;-68
2022/09/17 05:34:18;;;;;;;0.30;0.30;;;;;;;22.16;86.37;98341.06;5089333;28;20203;-68
2022/09/17 05:36:45;;;;;;;0.30;0.30;;;;;;;22.35;84.82;98333.16;5089610;28;20202;-68
2022/09/17 05:39:13;;;;;;;0.47;0.47;;;;;;;22.53;84.57;98326.16;5090924;28;20269;-68
2022/09/17 05:41:40;;;;;;;0.37;0.37;;;;;;;22.65;84.74;98321.56;5088431;28;20199;-68
2022/09/17 05:44:06;;;;;;;0.30;0.30;;;;;;;22.72;83.19;98352.19;5088453;28;20210;-67
2022/09/17 05:46:33;;;;;;;0.30;0.30;;;;;;;22.86;82.48;98362.13;5089605;28;20202;-67
2022/09/17 05:49:00;;;;;;;0.33;0.33;;;;;;;22.94;83.11;98351.75;5088477;28;20215;-67
2022/09/17 05:51:27;;;;;;;0.30;0.30;;;;;;;22.90;81.14;98339.97;5088616;28;20196;-66
2022/09/17 05:53:54;;;;;;;0.30;0.30;;;;;;;22.97;82.92;98348.81;5089874;28;20320;-66
2022/09/17 05:56:23;;;;;;;0.30;0.30;;;;;;;22.77;82.92;98344.72;5087740;28;20354;-67
2022/09/17 05:58:49;;;;;;;0.30;0.30;;;;;;;22.81;84.08;98356.50;5089100;28;20191;-68
2022/09/17 06:01:16;;;;;;;0.30;0.30;;;;;;;22.71;83.80;98361.00;5089084;28;20211;-67
2022/09/17 06:03:43;;;;;;;0.30;0.30;;;;;;;22.74;85.87;98360.72;5090093;28;20199;-68
2022/09/17 06:06:10;;;;;;;0.20;0.20;;;;;;;22.84;84.83;98387.56;5089589;28;20196;-66
2022/09/17 06:08:37;;;;;;;0.20;0.20;;;;;;;22.99;84.82;98390.50;5089799;28;20211;-67
2022/09/17 06:11:04;;;;;;;0.27;0.27;;;;;;;23.11;84.04;98383.25;5089351;28;20274;-66
2022/09/17 06:13:33;;;;;;;0.40;0.40;;;;;;;23.06;83.94;98385.50;5089087;28;20226;-67
2022/09/17 06:16:01;;;;;;;0.30;0.30;;;;;;;22.99;84.00;98401.78;5089331;28;20202;-69
2022/09/17 06:18:28;;;;;;;0.20;0.20;;;;;;;22.79;84.10;98395.03;5089109;28;20199;-68
2022/09/17 06:20:56;;;;;;;0.20;0.20;;;;;;;22.48;84.25;98386.69;5088368;28;20203;-67
2022/09/17 06:23:23;;;;;;;0.20;0.20;;;;;;;22.52;84.88;98376.75;5092137;28;20264;-66
2022/09/17 06:25:52;;;;;;;0.30;0.30;;;;;;;22.44;85.22;98394.94;5093105;28;20663;-67
2022/09/17 06:28:19;;;;;;;0.33;0.33;;;;;;;22.34;86.26;98399.38;5091346;28;20719;-67
2022/09/17 06:30:47;;;;;;;0.40;0.40;;;;;;;22.22;87.16;98405.75;5090492;28;20203;-67
2022/09/17 06:33:14;;;;;;;0.30;0.30;;;;;;;22.16;87.82;98416.78;5091988;28;20612;-67
2022/09/17 06:35:41;;;;;;;0.30;0.30;;;;;;;22.10;88.55;98427.78;5090934;28;20202;-67
2022/09/17 06:38:08;;;;;;;0.20;0.20;;;;;;;21.97;88.07;98412.44;5090450;28;20202;-67
2022/09/17 06:40:35;;;;;;;0.30;0.30;;;;;;;22.08;88.69;98416.66;5091529;28;20477;-67
2022/09/17 06:43:02;;;;;;;0.30;0.30;;;;;;;22.11;88.46;98419.81;5091937;28;20207;-67
2022/09/17 06:45:29;;;;;;;0.20;0.20;;;;;;;22.14;89.87;98419.53;5090915;28;20211;-70
2022/09/17 06:47:58;;;;;;;0.30;0.30;;;;;;;22.21;88.47;98404.09;5089630;28;20690;-70
2022/09/17 06:50:24;;;;;;;0.30;0.30;;;;;;;22.26;88.82;98396.69;5092484;28;20647;-68
2022/09/17 06:52:52;;;;;;;0.30;0.30;;;;;;;22.30;87.53;98398.03;5092098;28;20222;-69
2022/09/17 06:55:20;;;;;;;0.43;0.43;;;;;;;22.37;86.92;98394.69;5091205;28;20198;-69
2022/09/17 06:57:47;;;;;;;0.23;0.23;;;;;;;22.57;87.24;98411.09;5091592;28;20203;-69
2022/09/17 07:00:15;;;;;;;0.27;0.27;;;;;;;22.68;87.89;98420.56;5091417;28;20203;-69
2022/09/17 07:02:41;;;;;;;0.20;0.20;;;;;;;22.70;88.94;98401.16;5091123;28;20203;-69
2022/09/17 07:05:10;;;;;;;0.30;0.30;;;;;;;22.81;90.59;98385.25;5092468;28;20682;-69
2022/09/17 07:07:38;;;;;;;0.30;0.30;;;;;;;22.95;90.91;98389.97;5091634;28;20210;-69
2022/09/17 07:10:06;;;;;;;0.30;0.30;;;;;;;22.99;88.52;98401.78;5091810;28;20722;-69
2022/09/17 07:12:33;;;;;;;0.20;0.20;;;;;;;23.09;88.47;98406.13;5090487;28;20218;-69
2022/09/17 07:15:01;;;;;;;0.23;0.23;;;;;;;23.17;86.68;98398.34;5090712;28;20203;-69
2022/09/17 07:17:29;;;;;;;0.20;0.20;;;;;;;23.29;84.80;98402.41;5090733;28;20444;-72
2022/09/17 07:19:56;;;;;;;0.20;0.20;;;;;;;23.52;84.53;98393.16;5091837;28;20427;-69
2022/09/17 07:22:25;;;;;;;0.20;0.20;;;;;;;23.88;82.96;98397.31;5092828;28;20195;-69
2022/09/17 07:24:52;;;;;;;0.20;0.20;;;;;;;24.29;82.36;98389.72;5093061;28;20203;-70
2022/09/17 07:27:20;;;;;;;0.20;0.20;;;;;;;24.63;79.53;98382.63;5093139;28;20574;-70
2022/09/17 07:29:47;;;;;;;0.30;0.30;;;;;;;24.98;78.84;98385.03;5092601;28;20306;-69
2022/09/17 07:32:14;;;;;;;0.60;0.60;;;;;;;25.32;77.38;98389.34;5092717;28;20237;-69
2022/09/17 07:34:41;;;;;;;0.20;0.20;;;;;;;25.66;73.09;98376.88;5092651;28;20195;-70
2022/09/17 07:37:07;;;;;;;0.30;0.30;;;;;;;25.83;70.29;98362.72;5092561;28;20211;-70
2022/09/17 07:39:36;;;;;;;0.20;0.20;;;;;;;26.04;72.60;98367.47;5092291;28;20641;-70
2022/09/17 07:42:03;;;;;;;0.40;0.40;;;;;;;26.11;70.52;98371.84;5091864;28;20210;-70
2022/09/17 07:44:30;;;;;;;0.20;0.20;;;;;;;26.25;68.40;98349.34;5091690;28;20667;-70
2022/09/17 07:46:57;;;;;;;0.20;0.20;;;;;;;26.36;67.52;98350.78;5092129;28;20210;-70
2022/09/17 07:49:23;;;;;;;0.20;0.20;;;;;;;26.39;67.13;98355.69;5092194;28;20693;-70
2022/09/17 07:51:50;;;;;;;0.20;0.20;;;;;;;26.37;67.92;98358.47;5092195;28;20195;-70
2022/09/17 07:54:17;;;;;;;0.20;0.20;;;;;;;26.41;66.79;98358.94;5092040;28;20192;-70
2022/09/17 07:56:45;;;;;;;0.20;0.20;;;;;;;26.46;65.86;98348.75;5092271;28;20195;-70
2022/09/17 07:59:12;;;;;;;0.20;0.20;;;;;;;26.55;66.12;98350.34;5092012;28;20191;-70
2022/09/17 08:01:39;;;;;;;0.20;0.20;;;;;;;26.84;65.14;98361.06;5092358;28;20227;-70
2022/09/17 08:04:06;;;;;;;0.20;0.20;;;;;;;27.12;64.66;98370.06;5091833;28;20214;-70
2022/09/17 08:06:37;;;;;;;0.53;0.53;;;;;;;27.39;64.97;98376.59;5095165;28;20196;-70
2022/09/17 08:09:05;;;;;;;0.20;0.20;;;;;;;27.61;61.67;98373.16;5091957;28;20211;-70
2022/09/17 08:11:31;;;;;;;0.10;0.10;;;;;;;27.85;61.16;98356.25;5092223;28;20206;-71
2022/09/17 08:13:59;;;;;;;0.20;0.20;;;;;;;28.04;61.98;98366.28;5091976;28;20234;-70
2022/09/17 08:16:26;;;;;;;0.20;0.20;;;;;;;28.19;59.37;98360.22;5091763;28;20200;-70
2022/09/17 08:18:55;;;;;;;0.20;0.20;;;;;;;28.34;57.11;98361.00;5091858;28;20191;-71
2022/09/17 08:21:22;;;;;;;0.10;0.10;;;;;;;28.49;57.46;98365.28;5091545;28;20196;-70
2022/09/17 08:23:49;;;;;;;0.20;0.20;;;;;;;28.67;55.96;98372.81;5091802;28;20663;-71
2022/09/17 08:26:19;;;;;;;0.20;0.20;;;;;;;28.81;56.55;98366.69;5091702;28;20207;-70
2022/09/17 08:28:48;;;;;;;0.20;0.20;;;;;;;28.90;56.19;98355.00;5091683;28;20211;-71
2022/09/17 08:31:18;;;;;;;0.20;0.20;;;;;;;29.07;59.18;98342.38;5089281;28;20192;-71
2022/09/17 08:33:45;;;;;;;0.20;0.20;;;;;;;29.26;54.83;98347.06;5092890;28;20209;-70
2022/09/17 08:36:17;;;;;;;0.10;0.10;;;;;;;29.35;55.31;98353.00;5091782;28;20637;-70
2022/09/17 08:38:44;;;;;;;0.10;0.10;;;;;;;29.56;52.27;98352.97;5090284;28;20199;-70
2022/09/17 08:41:23;;;;;;;0.20;0.20;;;;;;;29.45;54.66;98350.84;5091337;28;20203;-71
2022/09/17 08:44:01;;;;;;;0.23;0.23;;;;;;;29.57;54.39;98339.56;5090841;28;20203;-71
2022/09/17 08:46:33;;;;;;;0.20;0.20;;;;;;;29.79;52.88;98332.38;5090827;28;20199;-71
2022/09/17 08:49:08;;;;;;;0.15;0.15;;;;;;;29.87;53.49;98327.00;5091353;28;20217;-71
2022/09/17 08:51:43;;;;;;;0.20;0.20;;;;;;;30.02;51.83;98343.53;5091231;28;20625;-71
2022/09/17 08:54:17;;;;;;;0.20;0.20;;;;;;;30.03;51.18;98339.06;5091132;28;20206;-71
2022/09/17 08:56:48;;;;;;;0.20;0.20;;;;;;;30.20;51.41;98320.06;5091069;28;20195;-71
2022/09/17 08:59:25;;;;;;;0.10;0.10;;;;;;;30.41;49.83;98319.13;5091226;28;20202;-71
2022/09/17 09:02:00;;;;;;;0.20;0.20;;;;;;;30.55;51.68;98301.47;5090839;28;20289;-71
2022/09/17 09:04:59;;;;;;;0.20;0.20;;;;;;;30.73;49.47;98291.94;5090105;28;20203;-71
2022/09/17 09:07:30;;;;;;;0.13;0.13;;;;;;;30.82;49.78;98305.00;5088548;28;20632;-71
2022/09/17 09:10:11;;;;;;;0.20;0.20;;;;;;;30.88;49.14;98297.06;5091936;28;20302;-71
2022/09/17 09:12:39;;;;;;;0.15;0.15;;;;;;;30.76;50.02;98293.38;5090666;28;20231;-71
2022/09/17 09:15:17;;;;;;;0.20;0.20;;;;;;;30.85;50.03;98281.59;5091072;28;20206;-71
2022/09/17 09:17:49;;;;;;;0.20;0.20;;;;;;;30.99;51.91;98272.66;5091169;28;20547;-71
2022/09/17 09:20:19;;;;;;;0.10;0.10;;;;;;;30.66;49.72;98255.94;5086112;28;20666;-71
2022/09/17 09:22:48;;;;;;;0.20;0.20;;;;;;;30.67;49.47;98276.06;5090770;28;20233;-72
2022/09/17 09:25:22;;;;;;;0.20;0.20;;;;;;;30.61;49.34;98268.94;5090894;28;20207;-71
2022/09/17 09:28:05;;;;;;;0.17;0.17;;;;;;;30.82;51.17;98271.44;5090692;28;20207;-71
2022/09/17 09:30:46;;;;;;;0.15;0.15;;;;;;;30.90;50.65;98257.97;5091613;28;20230;-71
2022/09/17 09:33:17;;;;;;;0.20;0.20;;;;;;;31.04;50.53;98246.41;5090602;28;20683;-71
2022/09/17 09:35:45;;;;;;;0.10;0.10;;;;;;;31.19;48.97;98241.72;5090711;28;20191;-71
2022/09/17 09:38:20;;;;;;;0.20;0.20;;;;;;;31.36;49.10;98231.50;5087726;28;20200;-71
2022/09/17 09:40:53;;;;;;;0.43;0.43;;;;;;;31.19;47.97;98244.38;5089991;28;20289;-71
2022/09/17 09:43:22;;;;;;;0.20;0.20;;;;;;;30.96;47.39;98240.50;5090400;28;20199;-71
2022/09/17 09:46:14;;;;;;;0.20;0.20;;;;;;;31.01;49.26;98232.78;5090636;28;20281;-71
2022/09/17 09:48:55;;;;;;;0.20;0.20;;;;;;;31.12;48.71;98232.97;5090512;28;20198;-71
2022/09/17 09:51:38;;;;;;;0.20;0.20;;;;;;;31.34;50.25;98232.75;5090791;28;20260;-71
2022/09/17 09:54:16;;;;;;;0.20;0.20;;;;;;;31.35;48.76;98237.00;5090284;28;20196;-71
2022/09/17 09:56:55;;;;;;;0.20;0.20;;;;;;;31.11;48.70;98233.19;5091310;28;20230;-71
2022/09/17 09:59:21;;;;;;;0.20;0.20;;;;;;;30.81;48.68;98227.44;5094647;28;20199;-71
2022/09/17 10:01:48;;;;;;;0.20;0.20;;;;;;;30.61;49.78;98221.31;5096215;28;20211;-71
2022/09/17 10:04:19;;;;;;;0.10;0.10;;;;;;;30.54;49.93;98205.44;5094248;28;20214;-71
2022/09/17 10:06:47;;;;;;;0.20;0.20;;;;;;;30.72;49.99;98218.09;5094753;28;20196;-71
2022/09/17 10:09:20;;;;;;;0.20;0.20;;;;;;;30.74;49.25;98221.34;5094161;28;20215;-71
2022/09/17 10:12:00;;;;;;;0.13;0.13;;;;;;;30.92;49.61;98232.09;5094544;28;20195;-71
2022/09/17 10:14:28;;;;;;;0.10;0.10;;;;;;;30.80;48.74;98228.44;5094396;28;20200;-71
2022/09/17 10:17:21;;;;;;;0.13;0.13;;;;;;;30.71;48.63;98221.75;5094204;28;20195;-71
2022/09/17 10:20:13;;;;;;;0.20;0.20;;;;;;;30.61;49.09;98235.38;5095418;28;20279;-71
2022/09/17 10:22:42;;;;;;;0.20;0.20;;;;;;;30.69;49.52;98242.31;5094128;28;20199;-71
2022/09/17 10:25:27;;;;;;;0.20;0.20;;;;;;;30.49;50.22;98257.31;5093857;28;20203;-71
2022/09/17 10:27:56;;;;;;;0.10;0.10;;;;;;;30.29;51.27;98262.53;5094222;28;20263;-71
2022/09/17 10:30:24;;;;;;;0.10;0.10;;;;;;;30.04;51.38;98262.25;5093840;28;20714;-71
2022/09/17 10:33:16;;;;;;;0.20;0.20;;;;;;;29.80;52.57;98228.34;5093872;28;20287;-71
2022/09/17 10:36:00;;;;;;;0.20;0.20;;;;;;;29.84;53.65;98242.84;5093575;28;20250;-71
2022/09/17 10:38:32;;;;;;;0.20;0.20;;;;;;;29.92;53.45;98232.09;5091936;28;20582;-72
2022/09/17 10:41:14;;;;;;;0.20;0.20;;;;;;;30.04;52.73;98241.09;5093668;28;20207;-72
2022/09/17 10:43:41;;;;;;;0.10;0.10;;;;;;;30.11;53.40;98251.69;5094508;28;20605;-71
2022/09/17 10:46:11;;;;;;;0.20;0.20;;;;;;;30.15;55.45;98259.00;5098935;28;20667;-72
2022/09/17 10:48:43;;;;;;;0.10;0.10;;;;;;;30.21;57.52;98258.22;5093494;28;20195;-71
2022/09/17 10:51:21;;;;;;;0.10;0.10;;;;;;;30.05;58.22;98269.13;5090793;28;20537;-72
2022/09/17 10:54:07;;;;;;;0.10;0.10;;;;;;;30.06;57.03;98275.25;5091422;28;20207;-73
2022/09/17 10:56:36;;;;;;;0.17;0.17;;;;;;;29.48;61.15;98281.81;5088498;28;20560;-72
2022/09/17 10:59:29;;;;;;;0.20;0.20;;;;;;;28.84;65.20;98295.06;5090938;28;20238;-72
2022/09/17 11:02:09;;;;;;;0.13;0.13;;;;;;;28.41;66.50;98320.56;5090921;28;20191;-73
2022/09/17 11:04:49;;;;;;;0.10;0.10;;;;;;;28.34;65.54;98334.66;5091527;28;20195;-73
2022/09/17 11:07:34;;;;;;;0.50;0.50;;;;;;;28.24;66.00;98360.50;5090569;28;20206;-73
2022/09/17 11:10:12;;;;;;;0.20;0.20;;;;;;;27.86;68.74;98436.13;5090680;28;20238;-75
2022/09/17 11:12:57;;;;;;;0.20;0.20;;;;;;;27.70;75.19;98494.19;5091509;28;20219;-73
2022/09/17 11:15:35;;;;;;;0.10;0.10;;;;;;;26.89;86.83;98489.41;5091482;28;20203;-77
2022/09/17 11:18:40;;;;;;;0.20;0.20;;;;;;;25.95;93.17;98484.81;5091793;28;20198;-76
2022/09/17 11:21:30;;;;;;;0.20;0.20;;;;;;;25.36;100.00;98487.72;5090956;28;20195;-77
2022/09/17 11:24:50;;;;;;;0.30;0.30;;;;;;;25.01;100.00;98515.81;5091380;28;20582;-74
2022/09/17 11:27:30;;;;;;;0.30;0.30;;;;;;;24.80;100.00;98533.75;5091617;28;20597;-78
2022/09/17 11:30:05;;;;;;;0.23;0.23;;;;;;;24.81;100.00;98556.38;5090210;28;20238;-74
2022/09/17 11:32:47;;;;;;;0.20;0.20;;;;;;;24.94;100.00;98551.50;5092157;28;20191;-75
2022/09/17 11:35:19;;;;;;;0.30;0.30;;;;;;;24.90;100.00;98497.78;5090192;28;20230;-73
2022/09/17 11:37:51;;;;;;;0.20;0.20;;;;;;;25.03;100.00;98450.13;5091894;28;20206;-73
2022/09/17 11:40:22;;;;;;;0.20;0.20;;;;;;;25.02;98.45;98472.06;5092152;28;20613;-75
2022/09/17 11:42:56;;;;;;;0.23;0.23;;;;;;;25.08;99.25;98481.91;5091839;28;20195;-71
2022/09/17 11:45:27;;;;;;;0.20;0.20;;;;;;;25.11;98.73;98459.78;5091702;28;20687;-72
2022/09/17 11:48:01;;;;;;;0.20;0.20;;;;;;;25.10;99.78;98455.53;5091541;28;20207;-72
2022/09/17 11:50:31;;;;;;;0.20;0.20;;;;;;;25.18;100.00;98463.41;5091749;28;20226;-72
2022/09/17 11:53:06;;;;;;;0.30;0.30;;;;;;;25.27;100.00;98462.44;5091804;28;20206;-72